Airfield :
LOGIN :

Register | Disclaimer

   EN    FR    IT 

 










Legend :    VFR   Marginal VFR   IFR   Intensive IFR   Very Intensive IFR
Visi :
Ceiling :
>= 8 km
>= 3000ft
5 to 8 km
1000 to 3000 ft
1500m to 5 km
500 to 1000 ft
800 to 1500m
200 to 500 ft
< 800m
< 200 ft
Symbols :   Thunderstorms  Fog  Heavy snow  Heavy precipitations  Wind > 20 kt
SIGMETs :     Misc.  Thunderstorms  Icing  Turbulence  Mountain Waves  Volcanic Ashes






- Airport Elevation : 19 ft
- IATA code : LCY


EGLC - London City

CURRENT METAR :
  • 241350Z AUTO VRB03G15KT 9999 SCT011 OVC016 07/05 Q1022

EXPIRED METARs :
  • 241320Z AUTO VRB03KT 9999 OVC011 07/05 Q1022
  • 241250Z 16004KT 130V200 9999 SCT012 OVC016 07/05 Q1022
  • 241220Z VRB02KT 9999 SCT012 OVC016 07/05 Q1023
  • 241150Z VRB03KT 9999 BKN014 OVC019 07/05 Q1023
  • 241120Z VRB02KT 9999 BKN012 07/05 Q1024

TAF TAF EGLC
Valid from the 24 at 12:00 until the 24 at 21:00 UTC


241100Z 2412/2421 VRB04KT 6000 SCT006 BKN020
TEMPO 2412/2421 9999 BKN008
PROB30
TEMPO 2412/2418 4000 BR
ATIS : +44 20 7646 0224



MET'MAP, your aeronautical weather chart ! - Copyright ORBIFLY December 2007 - Disclaimer

ORBIFLY MET'MAP TEAM :

Programming & Development : Alexandra Zaïnal
Concept & original design : Baudouin d'Aumeries
Assistance for programming : Marc-Olivier Méhu
Technical & hardware support : Manuel Goepfert

Contact : metmap@orbifly.com




SOURCES & CREDITS :

   NOAA